createdAt,value
2022-09-23T00:02:02.140Z,4.90
2022-09-23T00:04:29.946Z,7.43
2022-09-23T00:06:56.233Z,7.07
2022-09-23T00:09:22.904Z,5.70
2022-09-23T00:11:49.208Z,7.18
2022-09-23T00:14:15.568Z,6.90
2022-09-23T00:16:41.906Z,10.77
2022-09-23T00:19:08.367Z,4.97
2022-09-23T00:21:34.777Z,5.93
2022-09-23T00:24:02.245Z,8.75
2022-09-23T00:26:28.607Z,7.93
2022-09-23T00:28:54.933Z,10.90
2022-09-23T00:31:24.979Z,5.13
2022-09-23T00:33:59.767Z,4.45
2022-09-23T00:36:27.542Z,6.15
2022-09-23T00:38:54.660Z,7.50
2022-09-23T00:41:21.882Z,5.47
2022-09-23T00:43:58.231Z,6.18
2022-09-23T00:46:53.906Z,5.15
2022-09-23T00:49:27.294Z,9.40
2022-09-23T00:51:57.770Z,5.63
2022-09-23T00:54:27.455Z,7.30
2022-09-23T00:56:55.455Z,4.88
2022-09-23T00:59:24.332Z,5.35
2022-09-23T01:01:54.764Z,5.07
2022-09-23T01:04:24.428Z,6.57
2022-09-23T01:06:50.760Z,6.63
2022-09-23T01:09:18.384Z,6.93
2022-09-23T01:11:56.255Z,9.88
2022-09-23T01:14:44.420Z,5.80
2022-09-23T01:17:40.085Z,5.90
2022-09-23T01:20:39.193Z,5.85
2022-09-23T01:23:17.750Z,7.72
2022-09-23T01:26:08.382Z,8.25
2022-09-23T01:29:05.546Z,8.43
2022-09-23T01:31:40.513Z,5.78
2022-09-23T01:34:15.839Z,7.10
2022-09-23T01:36:55.480Z,9.73
2022-09-23T01:39:35.132Z,7.20
2022-09-23T01:42:10.595Z,6.90
2022-09-23T01:44:48.092Z,7.03
2022-09-23T01:47:17.247Z,6.32
2022-09-23T01:49:51.724Z,6.90
2022-09-23T01:52:32.882Z,7.72
2022-09-23T01:57:34.871Z,6.85
2022-09-23T02:00:17.273Z,7.53
2022-09-23T02:02:52.740Z,6.55
2022-09-23T02:05:27.846Z,8.30
2022-09-23T02:08:01.033Z,7.20
2022-09-23T02:10:49.239Z,9.90
2022-09-23T02:13:25.520Z,5.68
2022-09-23T02:15:58.538Z,8.38
2022-09-23T02:18:47.101Z,5.90
2022-09-23T02:21:15.320Z,6.22
2022-09-23T02:23:45.771Z,7.00
2022-09-23T02:26:27.567Z,7.27
2022-09-23T02:29:18.714Z,9.32
2022-09-23T02:31:55.900Z,10.32
2022-09-23T02:34:45.572Z,5.95
2022-09-23T02:37:18.007Z,7.18
2022-09-23T02:40:13.122Z,6.75
2022-09-23T02:43:00.489Z,10.38
2022-09-23T02:45:27.487Z,7.90
2022-09-23T02:48:02.376Z,8.27
2022-09-23T02:50:30.940Z,6.30
2022-09-23T02:52:58.865Z,9.35
2022-09-23T02:55:31.183Z,6.00
2022-09-23T02:58:01.356Z,6.32
2022-09-23T03:00:47.287Z,8.02
2022-09-23T03:03:22.953Z,7.95
2022-09-23T03:05:58.631Z,6.25
2022-09-23T03:08:45.373Z,7.65
2022-09-23T03:11:13.459Z,6.95
2022-09-23T03:13:51.153Z,7.28
2022-09-23T03:16:55.752Z,8.43
2022-09-23T03:19:42.207Z,8.68
2022-09-23T03:22:15.211Z,8.35
2022-09-23T03:24:44.727Z,7.40
2022-09-23T03:27:17.627Z,6.80
2022-09-23T03:29:47.688Z,6.32
2022-09-23T03:32:17.116Z,6.65
2022-09-23T03:34:46.375Z,6.57
2022-09-23T03:37:18.864Z,5.72
2022-09-23T03:39:53.256Z,5.63
2022-09-23T03:42:26.688Z,5.97
2022-09-23T03:44:56.995Z,7.57
2022-09-23T03:47:26.501Z,5.05
2022-09-23T03:49:53.594Z,4.47
2022-09-23T03:52:22.676Z,7.47
2022-09-23T03:54:51.060Z,5.82
2022-09-23T03:57:18.282Z,5.82
2022-09-23T03:59:44.615Z,5.80
2022-09-23T04:02:11.737Z,6.30
2022-09-23T04:04:41.261Z,8.07
2022-09-23T04:07:08.727Z,5.15
2022-09-23T04:09:35.441Z,7.78
2022-09-23T04:12:03.459Z,8.45
2022-09-23T04:14:30.298Z,6.22
2022-09-23T04:16:56.835Z,7.47
2022-09-23T04:19:23.373Z,3.70
2022-09-23T04:21:49.845Z,5.93
2022-09-23T04:24:16.969Z,3.25
2022-09-23T04:26:44.138Z,5.15
2022-09-23T04:29:11.376Z,6.10
2022-09-23T04:31:38.503Z,5.95
2022-09-23T04:34:04.896Z,9.00
2022-09-23T04:36:31.265Z,4.03
2022-09-23T04:38:57.713Z,4.30
2022-09-23T04:41:24.294Z,4.55
2022-09-23T04:43:50.592Z,6.35
2022-09-23T04:46:17.367Z,15.80
2022-09-23T04:48:43.973Z,5.70
2022-09-23T04:51:13.832Z,8.15
2022-09-23T04:53:44.877Z,3.88
2022-09-23T04:56:14.017Z,7.60
2022-09-23T04:58:41.281Z,6.75
2022-09-23T05:01:17.670Z,5.75
2022-09-23T05:03:45.657Z,4.47
2022-09-23T05:06:14.351Z,4.72
2022-09-23T05:08:42.183Z,6.47
2022-09-23T05:11:08.932Z,5.65
2022-09-23T05:13:35.646Z,6.57
2022-09-23T05:16:11.923Z,4.60
2022-09-23T05:18:43.747Z,8.27
2022-09-23T05:21:11.964Z,9.63
2022-09-23T05:23:40.439Z,8.38
2022-09-23T05:26:10.059Z,8.90
2022-09-23T05:28:39.140Z,7.20
2022-09-23T05:31:19.420Z,5.15
2022-09-23T05:33:52.243Z,9.43
2022-09-23T05:36:21.960Z,6.22
2022-09-23T05:38:49.890Z,5.43
2022-09-23T05:41:18.018Z,5.50
2022-09-23T05:43:44.982Z,5.30
2022-09-23T05:46:12.609Z,6.45
2022-09-23T05:48:40.304Z,6.43
2022-09-23T05:51:12.639Z,7.82
2022-09-23T05:53:40.510Z,9.02
2022-09-23T05:56:07.778Z,8.10
2022-09-23T05:58:34.562Z,7.00
2022-09-23T06:01:00.975Z,8.43
2022-09-23T06:03:27.347Z,7.22
2022-09-23T06:05:55.339Z,5.72
2022-09-23T06:08:22.892Z,10.45
2022-09-23T06:10:53.579Z,5.72
2022-09-23T06:13:20.824Z,7.47
2022-09-23T06:15:47.241Z,8.55
2022-09-23T06:18:13.694Z,12.20
2022-09-23T06:20:40.076Z,6.55
2022-09-23T06:23:10.780Z,5.93
2022-09-23T06:25:41.413Z,8.77
2022-09-23T06:28:11.405Z,8.25
2022-09-23T06:30:39.678Z,8.82
2022-09-23T06:33:06.075Z,7.07
2022-09-23T06:35:33.143Z,9.13
2022-09-23T06:38:02.979Z,12.18
2022-09-23T06:40:29.560Z,6.32
2022-09-23T06:43:01.071Z,8.40
2022-09-23T06:45:28.367Z,10.82
2022-09-23T06:47:58.556Z,6.50
2022-09-23T06:50:26.110Z,7.05
2022-09-23T06:52:59.280Z,5.60
2022-09-23T06:55:27.839Z,8.40
2022-09-23T06:57:57.953Z,5.68
2022-09-23T07:00:25.224Z,8.93
2022-09-23T07:02:54.866Z,8.57
2022-09-23T07:05:22.293Z,10.30
2022-09-23T07:07:49.192Z,7.95
2022-09-23T07:10:15.874Z,6.25
2022-09-23T07:12:42.393Z,8.13
2022-09-23T07:15:09.711Z,5.85
2022-09-23T07:17:36.188Z,6.57
2022-09-23T07:20:03.719Z,6.20
2022-09-23T07:22:30.112Z,7.05
2022-09-23T07:24:56.461Z,10.85
2022-09-23T07:27:27.143Z,14.55
2022-09-23T07:29:53.810Z,6.72
2022-09-23T07:32:21.977Z,7.80
2022-09-23T07:34:48.925Z,5.97
2022-09-23T07:37:16.453Z,11.25
2022-09-23T07:39:43.558Z,7.85
2022-09-23T07:42:12.319Z,8.10
2022-09-23T07:44:39.309Z,6.40
2022-09-23T07:47:06.102Z,7.18
2022-09-23T07:49:35.499Z,8.48
2022-09-23T07:52:02.075Z,9.57
2022-09-23T07:54:29.685Z,8.50
2022-09-23T07:56:56.719Z,8.70
2022-09-23T07:59:23.359Z,9.18
2022-09-23T08:01:52.553Z,6.45
2022-09-23T08:04:29.122Z,5.55
2022-09-23T08:06:58.243Z,6.57
2022-09-23T08:09:34.776Z,9.23
2022-09-23T08:12:01.369Z,9.65
2022-09-23T08:14:27.951Z,6.10
2022-09-23T08:16:54.249Z,6.30
2022-09-23T08:19:20.727Z,9.52
2022-09-23T08:21:47.927Z,8.27
2022-09-23T08:24:17.965Z,5.90
2022-09-23T08:26:45.809Z,6.00
2022-09-23T08:29:16.755Z,6.57
2022-09-23T08:31:43.404Z,6.85
2022-09-23T08:34:10.265Z,5.53
2022-09-23T08:36:37.102Z,11.10
2022-09-23T08:39:04.800Z,4.68
2022-09-23T08:41:47.570Z,6.88
2022-09-23T08:44:17.590Z,7.22
2022-09-23T08:46:52.543Z,10.38
2022-09-23T08:49:35.492Z,6.03
2022-09-23T08:52:14.382Z,7.35
2022-09-23T08:54:41.062Z,7.60
2022-09-23T08:57:19.517Z,9.70
2022-09-23T08:59:45.860Z,6.60
2022-09-23T09:02:19.049Z,8.70
2022-09-23T09:04:50.498Z,6.53
2022-09-23T09:07:36.710Z,9.30
2022-09-23T09:10:15.015Z,8.15
2022-09-23T09:13:16.936Z,6.88
2022-09-23T09:15:56.109Z,5.38
2022-09-23T09:18:24.046Z,6.05
2022-09-23T09:21:09.843Z,6.00
2022-09-23T09:23:56.400Z,9.32
2022-09-23T09:26:26.919Z,6.88
2022-09-23T09:29:31.280Z,8.57
2022-09-23T09:32:11.827Z,8.45
2022-09-23T09:34:43.807Z,11.35
2022-09-23T09:37:27.559Z,13.18
2022-09-23T09:39:53.928Z,9.18
2022-09-23T09:42:26.872Z,6.50
2022-09-23T09:44:59.635Z,9.77
2022-09-23T09:47:38.553Z,7.35
2022-09-23T09:50:21.591Z,9.15
2022-09-23T09:52:48.975Z,8.75
2022-09-23T09:55:28.762Z,7.28
2022-09-23T09:58:05.625Z,9.10
2022-09-23T10:00:40.121Z,5.78
2022-09-23T10:03:12.469Z,9.45
2022-09-23T10:05:45.063Z,5.25
2022-09-23T10:08:37.272Z,6.55
2022-09-23T10:11:15.484Z,7.90
2022-09-23T10:14:03.327Z,7.30
2022-09-23T10:16:31.919Z,5.75
2022-09-23T10:19:13.559Z,7.07
2022-09-23T10:21:42.151Z,7.28
2022-09-23T10:24:21.622Z,7.05
2022-09-23T10:27:01.734Z,6.32
2022-09-23T10:29:36.991Z,6.65
2022-09-23T10:32:36.192Z,11.30
2022-09-23T10:35:14.802Z,6.45
2022-09-23T10:37:42.849Z,5.88
2022-09-23T10:40:34.873Z,12.10
2022-09-23T10:43:35.294Z,6.45
2022-09-23T10:46:24.919Z,5.60
2022-09-23T10:49:23.701Z,7.65
2022-09-23T10:52:19.691Z,9.00
2022-09-23T10:55:04.058Z,7.60
2022-09-23T10:57:45.758Z,8.25
2022-09-23T11:00:23.258Z,9.00
2022-09-23T11:02:55.709Z,7.13
2022-09-23T11:05:47.377Z,7.38
2022-09-23T11:08:23.118Z,10.05
2022-09-23T11:11:11.359Z,12.18
2022-09-23T11:13:54.580Z,7.97
2022-09-23T11:17:07.964Z,7.35
2022-09-23T11:19:34.268Z,6.22
2022-09-23T11:22:13.981Z,7.90
2022-09-23T11:25:24.705Z,8.60
2022-09-23T11:28:03.168Z,8.47
2022-09-23T11:30:59.924Z,5.63
2022-09-23T11:33:45.027Z,9.02
2022-09-23T11:36:23.926Z,6.50
2022-09-23T11:38:52.299Z,5.88
2022-09-23T11:41:27.015Z,7.78
2022-09-23T11:44:08.079Z,7.05
2022-09-23T11:46:40.596Z,6.57
2022-09-23T11:49:22.985Z,5.78
2022-09-23T11:52:03.655Z,8.98
2022-09-23T11:54:35.420Z,6.03
2022-09-23T11:57:42.321Z,8.75
2022-09-23T12:00:49.134Z,6.78
2022-09-23T12:03:42.419Z,5.65
2022-09-23T12:06:26.871Z,6.78
2022-09-23T12:09:02.123Z,8.50
2022-09-23T12:12:05.327Z,7.00
2022-09-23T12:14:54.091Z,7.90
2022-09-23T12:17:56.968Z,5.90
2022-09-23T12:20:31.101Z,6.65
2022-09-23T12:23:22.056Z,9.30
2022-09-23T12:25:54.769Z,8.10
2022-09-23T12:28:26.911Z,7.53
2022-09-23T12:30:57.023Z,7.72
2022-09-23T12:33:32.368Z,8.15
2022-09-23T12:36:06.885Z,11.40
2022-09-23T12:38:52.441Z,10.52
2022-09-23T12:41:37.723Z,13.43
2022-09-23T12:44:23.159Z,6.07
2022-09-23T12:47:41.996Z,7.57
2022-09-23T12:50:45.858Z,10.27
2022-09-23T12:53:34.261Z,5.50
2022-09-23T12:56:13.917Z,9.40
2022-09-23T12:58:43.209Z,9.05
2022-09-23T13:01:17.058Z,6.45
2022-09-23T13:04:09.016Z,8.00
2022-09-23T13:06:47.106Z,9.20
2022-09-23T13:09:19.012Z,10.65
2022-09-23T13:11:47.921Z,8.93
2022-09-23T13:14:27.422Z,7.20
2022-09-23T13:16:58.214Z,6.25
2022-09-23T13:19:27.771Z,4.47
2022-09-23T13:21:54.644Z,5.75
2022-09-23T13:24:24.915Z,8.80
2022-09-23T13:27:12.874Z,9.88
2022-09-23T13:29:50.066Z,8.60
2022-09-23T13:32:20.200Z,10.60
2022-09-23T13:34:57.858Z,5.93
2022-09-23T13:37:29.803Z,6.97
2022-09-23T13:40:23.842Z,7.47
2022-09-23T13:43:06.175Z,6.80
2022-09-23T13:45:37.904Z,7.72
2022-09-23T13:48:08.470Z,8.93
2022-09-23T13:50:38.423Z,9.68
2022-09-23T13:53:09.039Z,8.13
2022-09-23T13:55:37.444Z,9.45
2022-09-23T13:58:13.526Z,9.48
2022-09-23T14:00:40.113Z,7.53
2022-09-23T14:03:37.046Z,9.00
2022-09-23T14:06:08.478Z,11.30
2022-09-23T14:11:03.924Z,8.30
2022-09-23T14:13:41.461Z,5.47
2022-09-23T14:16:11.405Z,7.63
2022-09-23T14:18:40.690Z,8.07
2022-09-23T14:21:38.723Z,10.60
2022-09-23T14:24:33.228Z,7.82
2022-09-23T14:27:01.562Z,8.68
2022-09-23T14:29:34.506Z,9.90
2022-09-23T14:32:11.038Z,7.03
2022-09-23T14:34:49.066Z,9.02
2022-09-23T14:37:37.289Z,5.88
2022-09-23T14:40:10.358Z,6.45
2022-09-23T14:42:46.470Z,7.80
2022-09-23T14:45:17.041Z,8.82
2022-09-23T14:47:53.627Z,6.13
2022-09-23T14:50:40.402Z,10.00
2022-09-23T14:53:31.680Z,7.95
2022-09-23T14:58:51.927Z,5.88
2022-09-23T15:01:31.401Z,7.47
2022-09-23T15:04:27.964Z,14.73
2022-09-23T15:06:58.161Z,7.80
2022-09-23T15:09:32.044Z,7.32
2022-09-23T15:12:18.416Z,8.30
2022-09-23T15:14:51.157Z,6.60
2022-09-23T15:17:35.082Z,8.32
2022-09-23T15:20:25.371Z,5.80
2022-09-23T15:22:54.109Z,10.05
2022-09-23T15:25:27.489Z,7.90
2022-09-23T15:28:10.552Z,8.90
2022-09-23T15:30:38.278Z,8.90
2022-09-23T15:33:05.829Z,8.18
2022-09-23T15:35:36.831Z,10.15
2022-09-23T15:38:03.707Z,11.07
2022-09-23T15:40:35.523Z,7.72
2022-09-23T15:43:21.158Z,9.68
2022-09-23T15:45:53.115Z,8.63
2022-09-23T15:48:36.680Z,6.47
2022-09-23T15:51:05.379Z,5.32
2022-09-23T15:53:31.777Z,6.38
2022-09-23T15:55:58.657Z,8.45
2022-09-23T15:58:25.975Z,4.88
2022-09-23T16:00:56.780Z,6.35
2022-09-23T16:06:02.193Z,12.32
2022-09-23T16:08:29.541Z,7.03
2022-09-23T16:10:56.341Z,10.15
2022-09-23T16:13:22.950Z,8.57
2022-09-23T16:15:49.544Z,6.28
2022-09-23T16:18:15.950Z,6.15
2022-09-23T16:20:47.480Z,9.48
2022-09-23T16:23:42.858Z,6.65
2022-09-23T16:26:17.148Z,7.22
2022-09-23T16:28:45.040Z,7.28
2022-09-23T16:31:16.078Z,5.05
2022-09-23T16:33:44.191Z,11.82
2022-09-23T16:36:18.928Z,6.22
2022-09-23T16:38:45.267Z,8.13
2022-09-23T16:41:11.782Z,5.45
2022-09-23T16:43:39.624Z,6.40
2022-09-23T16:46:12.430Z,9.32
2022-09-23T16:48:40.429Z,7.68
2022-09-23T16:51:15.081Z,5.75
2022-09-23T16:53:42.514Z,6.63
2022-09-23T16:56:10.886Z,6.03
2022-09-23T16:58:38.451Z,10.52
2022-09-23T17:01:25.068Z,9.18
2022-09-23T17:03:51.797Z,6.75
2022-09-23T17:06:19.231Z,8.18
2022-09-23T17:08:48.116Z,7.25
2022-09-23T17:11:16.360Z,9.63
2022-09-23T17:13:46.964Z,7.45
2022-09-23T17:16:28.518Z,8.02
2022-09-23T17:18:55.710Z,9.20
2022-09-23T17:21:26.747Z,8.68
2022-09-23T17:23:54.518Z,5.80
2022-09-23T17:26:23.188Z,5.93
2022-09-23T17:28:54.265Z,7.35
2022-09-23T17:31:24.742Z,7.18
2022-09-23T17:33:52.674Z,8.63
2022-09-23T17:36:20.537Z,7.38
2022-09-23T17:38:48.399Z,6.78
2022-09-23T17:41:15.808Z,11.13
2022-09-23T17:43:42.513Z,13.50
2022-09-23T17:46:12.818Z,8.25
2022-09-23T17:48:44.088Z,9.57
2022-09-23T17:53:40.198Z,7.72
2022-09-23T17:56:26.935Z,9.27
2022-09-23T17:58:54.019Z,10.10
2022-09-23T18:01:26.018Z,10.50
2022-09-23T18:03:57.095Z,8.75
2022-09-23T18:06:26.060Z,11.57
2022-09-23T18:08:56.211Z,10.32
2022-09-23T18:11:25.204Z,10.55
2022-09-23T18:13:54.117Z,8.88
2022-09-23T18:16:23.544Z,10.80
2022-09-23T18:18:54.924Z,9.95
2022-09-23T18:21:22.701Z,9.43
2022-09-23T18:23:50.361Z,10.45
2022-09-23T18:26:22.212Z,13.32
2022-09-23T18:28:49.588Z,9.20
2022-09-23T18:31:16.497Z,11.95
2022-09-23T18:33:45.458Z,10.23
2022-09-23T18:36:12.008Z,9.55
2022-09-23T18:38:38.743Z,11.45
2022-09-23T18:41:05.711Z,13.13
2022-09-23T18:43:39.352Z,10.80
2022-09-23T18:46:13.388Z,12.18
2022-09-23T18:49:00.111Z,10.77
2022-09-23T18:51:29.323Z,11.63
2022-09-23T18:54:00.007Z,12.43
2022-09-23T18:56:31.015Z,11.15
2022-09-23T18:58:57.566Z,19.00
2022-09-23T19:01:27.211Z,13.15
2022-09-23T19:03:58.270Z,13.38
2022-09-23T19:08:54.088Z,11.23
2022-09-23T19:11:22.381Z,13.20
2022-09-23T19:13:54.909Z,13.48
2022-09-23T19:16:22.773Z,12.57
2022-09-23T19:18:50.516Z,14.50
2022-09-23T19:21:20.301Z,14.98
2022-09-23T19:23:49.098Z,14.10
2022-09-23T19:26:18.753Z,14.10
2022-09-23T19:28:55.762Z,20.73
2022-09-23T19:31:29.742Z,13.82
2022-09-23T19:34:00.259Z,15.07
2022-09-23T19:36:30.852Z,11.73
2022-09-23T19:39:00.582Z,14.20
2022-09-23T19:41:35.651Z,12.07
2022-09-23T19:44:03.363Z,14.50
2022-09-23T19:46:31.760Z,14.00
2022-09-23T19:48:59.859Z,14.77
2022-09-23T19:51:28.103Z,12.05
2022-09-23T19:53:54.919Z,12.50
2022-09-23T19:56:21.663Z,14.68
2022-09-23T19:58:54.186Z,13.88
2022-09-23T20:01:22.802Z,15.88
2022-09-23T20:03:53.407Z,14.90
2022-09-23T20:06:20.458Z,19.20
2022-09-23T20:08:47.929Z,14.95
2022-09-23T20:11:18.238Z,16.10
2022-09-23T20:13:49.274Z,18.65
2022-09-23T20:16:18.120Z,12.75
2022-09-23T20:18:46.669Z,13.98
2022-09-23T20:21:15.637Z,18.02
2022-09-23T20:23:42.436Z,19.00
2022-09-23T20:26:28.671Z,15.38
2022-09-23T20:28:55.587Z,15.13
2022-09-23T20:31:23.183Z,16.05
2022-09-23T20:33:51.333Z,14.77
2022-09-23T20:36:18.565Z,15.88
2022-09-23T20:38:45.247Z,16.83
2022-09-23T20:41:11.887Z,21.70
2022-09-23T20:43:38.613Z,13.85
2022-09-23T20:46:05.491Z,20.40
2022-09-23T20:48:32.004Z,16.58
2022-09-23T20:51:05.695Z,19.45
2022-09-23T20:53:32.643Z,15.85
2022-09-23T20:56:01.866Z,18.42
2022-09-23T20:58:31.211Z,18.98
2022-09-23T21:01:05.671Z,15.70
2022-09-23T21:03:32.866Z,19.98
2022-09-23T21:06:01.461Z,16.02
2022-09-23T21:08:27.935Z,15.85
2022-09-23T21:10:55.830Z,19.08
2022-09-23T21:13:22.212Z,19.13
2022-09-23T21:15:48.862Z,17.38
2022-09-23T21:18:19.209Z,18.02
2022-09-23T21:20:59.176Z,17.15
2022-09-23T21:23:33.902Z,16.52
2022-09-23T21:26:04.222Z,16.83
2022-09-23T21:28:34.546Z,19.00
2022-09-23T21:31:02.338Z,18.03
2022-09-23T21:33:28.851Z,18.48
2022-09-23T21:35:56.923Z,15.43
2022-09-23T21:38:26.411Z,17.83
2022-09-23T21:41:01.571Z,15.82
2022-09-23T21:43:33.227Z,14.35
2022-09-23T21:46:02.352Z,15.32
2022-09-23T21:48:30.820Z,15.57
2022-09-23T21:51:13.136Z,16.45
2022-09-23T21:53:40.860Z,14.05
2022-09-23T21:56:11.187Z,16.63
2022-09-23T21:58:39.431Z,14.87
2022-09-23T22:01:29.442Z,18.23
2022-09-23T22:04:10.729Z,17.77
2022-09-23T22:06:38.426Z,22.20
2022-09-23T22:09:10.948Z,17.60
2022-09-23T22:11:57.630Z,20.70
2022-09-23T22:14:25.641Z,19.83
2022-09-23T22:16:57.195Z,19.55
2022-09-23T22:19:34.637Z,18.10
2022-09-23T22:22:02.151Z,17.08
2022-09-23T22:24:28.579Z,17.40
2022-09-23T22:26:54.919Z,20.88
2022-09-23T22:29:39.943Z,20.60
2022-09-23T22:32:29.173Z,18.08
2022-09-23T22:34:55.966Z,17.40
2022-09-23T22:37:28.577Z,16.52
2022-09-23T22:39:55.001Z,16.17
2022-09-23T22:42:22.151Z,20.00
2022-09-23T22:44:48.823Z,17.27
2022-09-23T22:47:15.491Z,18.20
2022-09-23T22:49:42.836Z,17.65
2022-09-23T22:52:11.108Z,19.05
2022-09-23T22:54:37.829Z,17.98
2022-09-23T22:57:05.797Z,19.25
2022-09-23T22:59:32.900Z,17.70
2022-09-23T23:02:00.401Z,22.60
2022-09-23T23:04:27.516Z,21.35
2022-09-23T23:06:53.980Z,20.83
2022-09-23T23:09:20.427Z,19.33
2022-09-23T23:11:47.035Z,22.23
2022-09-23T23:14:16.430Z,23.77
2022-09-23T23:16:45.246Z,20.45
2022-09-23T23:19:14.084Z,22.13
2022-09-23T23:21:43.326Z,24.45
2022-09-23T23:24:18.093Z,23.45
2022-09-23T23:26:45.043Z,21.83
2022-09-23T23:29:13.481Z,23.85
2022-09-23T23:31:40.591Z,23.67
2022-09-23T23:34:10.689Z,19.05
2022-09-23T23:36:37.576Z,21.77
2022-09-23T23:39:04.277Z,19.30
2022-09-23T23:41:31.428Z,19.77
2022-09-23T23:43:59.681Z,18.40
2022-09-23T23:46:28.174Z,19.25
2022-09-23T23:48:55.677Z,22.17
2022-09-23T23:51:22.920Z,22.98
2022-09-23T23:53:49.345Z,19.10
2022-09-23T23:56:18.309Z,18.40
2022-09-23T23:58:45.104Z,18.80
